sensor_id;sensor_type;location;lat;lon;timestamp;pressure;altitude;pressure_sealevel;temperature;humidity
22018;BME280;11173;51.050;7.108;2022-08-19T00:01:34;99233.28;;;17.66;58.91
22018;BME280;11173;51.050;7.108;2022-08-19T00:06:38;99235.03;;;17.64;58.33
22018;BME280;11173;51.050;7.108;2022-08-19T00:11:39;99243.63;;;17.60;59.46
22018;BME280;11173;51.050;7.108;2022-08-19T00:16:41;99244.59;;;17.57;59.90
22018;BME280;11173;51.050;7.108;2022-08-19T00:21:42;99245.53;;;17.54;60.60
22018;BME280;11173;51.050;7.108;2022-08-19T00:26:43;99242.13;;;17.50;61.23
22018;BME280;11173;51.050;7.108;2022-08-19T00:31:45;99244.03;;;17.44;61.77
22018;BME280;11173;51.050;7.108;2022-08-19T00:36:46;99232.50;;;17.33;61.88
22018;BME280;11173;51.050;7.108;2022-08-19T00:41:48;99241.09;;;17.38;62.27
22018;BME280;11173;51.050;7.108;2022-08-19T00:46:50;99234.69;;;17.38;61.62
22018;BME280;11173;51.050;7.108;2022-08-19T00:52:01;99229.22;;;17.34;62.02
22018;BME280;11173;51.050;7.108;2022-08-19T00:57:05;99237.97;;;17.36;62.62
22018;BME280;11173;51.050;7.108;2022-08-19T01:02:06;99238.13;;;17.33;63.67
22018;BME280;11173;51.050;7.108;2022-08-19T01:07:07;99239.41;;;17.32;63.30
22018;BME280;11173;51.050;7.108;2022-08-19T01:12:11;99236.47;;;17.26;63.69
22018;BME280;11173;51.050;7.108;2022-08-19T01:17:12;99231.59;;;17.26;63.04
22018;BME280;11173;51.050;7.108;2022-08-19T01:27:43;99231.00;;;17.22;65.32
22018;BME280;11173;51.050;7.108;2022-08-19T01:32:44;99229.78;;;17.14;64.51
22018;BME280;11173;51.050;7.108;2022-08-19T01:37:51;99217.47;;;17.12;63.80
22018;BME280;11173;51.050;7.108;2022-08-19T01:42:53;99210.13;;;17.05;65.10
22018;BME280;11173;51.050;7.108;2022-08-19T01:47:55;99211.25;;;16.98;64.17
22018;BME280;11173;51.050;7.108;2022-08-19T01:52:55;99211.56;;;17.00;62.24
22018;BME280;11173;51.050;7.108;2022-08-19T01:57:58;99206.09;;;16.97;60.91
22018;BME280;11173;51.050;7.108;2022-08-19T02:03:00;99212.41;;;16.92;60.89
22018;BME280;11173;51.050;7.108;2022-08-19T02:08:01;99219.13;;;16.85;60.43
22018;BME280;11173;51.050;7.108;2022-08-19T02:13:01;99224.34;;;16.77;60.53
22018;BME280;11173;51.050;7.108;2022-08-19T02:18:02;99232.75;;;16.68;60.32
22018;BME280;11173;51.050;7.108;2022-08-19T02:23:03;99222.44;;;16.65;60.22
22018;BME280;11173;51.050;7.108;2022-08-19T02:28:03;99231.06;;;16.61;60.19
22018;BME280;11173;51.050;7.108;2022-08-19T02:33:04;99222.47;;;16.56;60.31
22018;BME280;11173;51.050;7.108;2022-08-19T02:38:05;99222.81;;;16.48;60.45
22018;BME280;11173;51.050;7.108;2022-08-19T02:43:26;99234.69;;;16.43;60.34
22018;BME280;11173;51.050;7.108;2022-08-19T02:48:27;99230.66;;;16.35;60.36
22018;BME280;11173;51.050;7.108;2022-08-19T02:53:28;99243.28;;;16.30;60.50
22018;BME280;11173;51.050;7.108;2022-08-19T02:58:28;99246.25;;;16.27;60.89
22018;BME280;11173;51.050;7.108;2022-08-19T03:03:29;99238.31;;;16.25;60.99
22018;BME280;11173;51.050;7.108;2022-08-19T03:08:29;99215.84;;;16.16;61.42
22018;BME280;11173;51.050;7.108;2022-08-19T03:13:30;99233.00;;;16.18;61.67
22018;BME280;11173;51.050;7.108;2022-08-19T03:18:31;99227.53;;;16.15;61.57
22018;BME280;11173;51.050;7.108;2022-08-19T03:23:31;99236.59;;;16.09;60.80
22018;BME280;11173;51.050;7.108;2022-08-19T03:28:33;99236.91;;;16.12;60.85
22018;BME280;11173;51.050;7.108;2022-08-19T03:33:34;99251.28;;;16.14;61.13
22018;BME280;11173;51.050;7.108;2022-08-19T03:38:44;99250.00;;;16.15;60.76
22018;BME280;11173;51.050;7.108;2022-08-19T03:43:45;99245.34;;;16.12;60.98
22018;BME280;11173;51.050;7.108;2022-08-19T03:48:51;99245.19;;;16.15;60.83
22018;BME280;11173;51.050;7.108;2022-08-19T03:53:54;99249.84;;;16.09;62.83
22018;BME280;11173;51.050;7.108;2022-08-19T03:58:57;99246.91;;;16.03;63.36
22018;BME280;11173;51.050;7.108;2022-08-19T04:03:58;99260.94;;;15.94;63.18
22018;BME280;11173;51.050;7.108;2022-08-19T04:09:01;99257.81;;;15.83;62.44
22018;BME280;11173;51.050;7.108;2022-08-19T04:14:02;99245.44;;;15.71;61.95
22018;BME280;11173;51.050;7.108;2022-08-19T04:19:04;99260.44;;;15.77;62.60
22018;BME280;11173;51.050;7.108;2022-08-19T04:24:05;99263.44;;;15.83;62.46
22018;BME280;11173;51.050;7.108;2022-08-19T04:29:11;99267.81;;;16.02;61.91
22018;BME280;11173;51.050;7.108;2022-08-19T04:34:15;99267.81;;;16.12;61.44
22018;BME280;11173;51.050;7.108;2022-08-19T04:39:17;99276.72;;;16.19;61.67
22018;BME280;11173;51.050;7.108;2022-08-19T04:44:18;99277.81;;;16.22;61.72
22018;BME280;11173;51.050;7.108;2022-08-19T04:49:20;99284.06;;;16.26;61.82
22018;BME280;11173;51.050;7.108;2022-08-19T04:54:24;99292.66;;;16.32;62.12
22018;BME280;11173;51.050;7.108;2022-08-19T04:59:25;99285.59;;;16.36;62.17
22018;BME280;11173;51.050;7.108;2022-08-19T05:04:25;99285.59;;;16.45;62.48
22018;BME280;11173;51.050;7.108;2022-08-19T05:09:26;99294.47;;;16.62;61.59
22018;BME280;11173;51.050;7.108;2022-08-19T05:14:26;99299.97;;;16.75;61.85
22018;BME280;11173;51.050;7.108;2022-08-19T05:19:27;99302.44;;;16.92;61.47
22018;BME280;11173;51.050;7.108;2022-08-19T05:24:46;99304.72;;;17.02;61.15
22018;BME280;11173;51.050;7.108;2022-08-19T05:29:46;99310.50;;;17.08;61.15
22018;BME280;11173;51.050;7.108;2022-08-19T05:34:46;99301.13;;;17.11;60.99
22018;BME280;11173;51.050;7.108;2022-08-19T05:39:47;99305.00;;;17.14;60.92
22018;BME280;11173;51.050;7.108;2022-08-19T05:44:50;99317.34;;;17.16;61.07
22018;BME280;11173;51.050;7.108;2022-08-19T05:49:50;99315.31;;;17.17;61.12
22018;BME280;11173;51.050;7.108;2022-08-19T05:54:51;99313.75;;;17.16;61.12
22018;BME280;11173;51.050;7.108;2022-08-19T05:59:51;99313.91;;;17.12;60.79
22018;BME280;11173;51.050;7.108;2022-08-19T06:04:53;99310.81;;;17.10;61.30
22018;BME280;11173;51.050;7.108;2022-08-19T06:09:55;99313.63;;;17.10;61.17
22018;BME280;11173;51.050;7.108;2022-08-19T06:14:56;99307.81;;;17.14;61.46
22018;BME280;11173;51.050;7.108;2022-08-19T06:19:57;99295.78;;;17.13;61.56
22018;BME280;11173;51.050;7.108;2022-08-19T06:24:58;99304.19;;;17.22;61.72
22018;BME280;11173;51.050;7.108;2022-08-19T06:29:58;99306.38;;;17.27;61.96
22018;BME280;11173;51.050;7.108;2022-08-19T06:34:59;99298.97;;;17.39;62.30
22018;BME280;11173;51.050;7.108;2022-08-19T06:39:59;99308.75;;;17.53;62.01
22018;BME280;11173;51.050;7.108;2022-08-19T06:45:00;99309.03;;;17.64;62.61
22018;BME280;11173;51.050;7.108;2022-08-19T06:50:03;99315.50;;;17.80;62.29
22018;BME280;11173;51.050;7.108;2022-08-19T06:55:05;99321.31;;;18.00;63.21
22018;BME280;11173;51.050;7.108;2022-08-19T07:00:06;99321.31;;;18.24;62.92
22018;BME280;11173;51.050;7.108;2022-08-19T07:05:11;99338.31;;;18.54;63.05
22018;BME280;11173;51.050;7.108;2022-08-19T07:10:11;99308.88;;;18.85;62.93
22018;BME280;11173;51.050;7.108;2022-08-19T07:15:12;99337.88;;;19.15;62.96
22018;BME280;11173;51.050;7.108;2022-08-19T07:20:13;99336.00;;;19.42;62.37
22018;BME280;11173;51.050;7.108;2022-08-19T07:25:14;99349.00;;;19.69;62.01
22018;BME280;11173;51.050;7.108;2022-08-19T07:30:16;99343.19;;;19.93;62.09
22018;BME280;11173;51.050;7.108;2022-08-19T07:35:16;99355.88;;;20.18;61.91
22018;BME280;11173;51.050;7.108;2022-08-19T07:40:19;99365.22;;;20.45;61.52
22018;BME280;11173;51.050;7.108;2022-08-19T07:45:20;99363.44;;;20.74;61.26
22018;BME280;11173;51.050;7.108;2022-08-19T07:50:21;99361.94;;;20.99;60.74
22018;BME280;11173;51.050;7.108;2022-08-19T07:55:24;99367.53;;;21.19;60.38
22018;BME280;11173;51.050;7.108;2022-08-19T08:00:25;99371.34;;;21.42;60.72
22018;BME280;11173;51.050;7.108;2022-08-19T08:05:26;99371.56;;;21.71;60.28
22018;BME280;11173;51.050;7.108;2022-08-19T08:10:45;99396.22;;;21.96;59.53
22018;BME280;11173;51.050;7.108;2022-08-19T08:15:45;99395.03;;;22.14;58.89
22018;BME280;11173;51.050;7.108;2022-08-19T08:20:46;99396.91;;;22.23;57.87
22018;BME280;11173;51.050;7.108;2022-08-19T08:25:47;99396.84;;;22.17;57.54
22018;BME280;11173;51.050;7.108;2022-08-19T08:30:49;99400.41;;;22.12;57.36
22018;BME280;11173;51.050;7.108;2022-08-19T08:35:50;99406.03;;;22.01;56.85
22018;BME280;11173;51.050;7.108;2022-08-19T08:40:53;99402.09;;;21.87;56.87
22018;BME280;11173;51.050;7.108;2022-08-19T08:46:04;99402.00;;;21.76;56.90
22018;BME280;11173;51.050;7.108;2022-08-19T08:51:11;99383.63;;;21.65;57.13
22018;BME280;11173;51.050;7.108;2022-08-19T08:56:13;99389.47;;;21.56;57.15
22018;BME280;11173;51.050;7.108;2022-08-19T09:01:13;99395.41;;;21.53;57.18
22018;BME280;11173;51.050;7.108;2022-08-19T09:16:46;99397.44;;;21.20;58.11
22018;BME280;11173;51.050;7.108;2022-08-19T09:21:48;99388.69;;;21.24;58.38
22018;BME280;11173;51.050;7.108;2022-08-19T09:26:50;99397.66;;;21.49;57.70
22018;BME280;11173;51.050;7.108;2022-08-19T09:31:50;99390.06;;;21.66;58.20
22018;BME280;11173;51.050;7.108;2022-08-19T09:36:51;99385.16;;;21.98;57.58
22018;BME280;11173;51.050;7.108;2022-08-19T09:41:53;99384.78;;;22.28;57.10
22018;BME280;11173;51.050;7.108;2022-08-19T09:46:54;99395.47;;;22.56;56.89
22018;BME280;11173;51.050;7.108;2022-08-19T09:51:54;99393.78;;;22.87;56.71
22018;BME280;11173;51.050;7.108;2022-08-19T09:56:58;99379.91;;;23.11;56.42
22018;BME280;11173;51.050;7.108;2022-08-19T10:02:00;99385.59;;;23.45;55.66
22018;BME280;11173;51.050;7.108;2022-08-19T10:07:00;99386.91;;;23.67;55.17
22018;BME280;11173;51.050;7.108;2022-08-19T10:12:03;99379.91;;;23.85;54.74
22018;BME280;11173;51.050;7.108;2022-08-19T10:17:04;99380.16;;;23.92;54.29
22018;BME280;11173;51.050;7.108;2022-08-19T10:22:06;99388.41;;;23.96;52.77
22018;BME280;11173;51.050;7.108;2022-08-19T10:27:07;99388.94;;;23.89;53.08
22018;BME280;11173;51.050;7.108;2022-08-19T10:32:08;99401.34;;;23.86;51.95
22018;BME280;11173;51.050;7.108;2022-08-19T10:37:08;99378.34;;;23.78;51.80
22018;BME280;11173;51.050;7.108;2022-08-19T10:42:10;99380.69;;;23.74;52.18
22018;BME280;11173;51.050;7.108;2022-08-19T10:47:11;99379.41;;;23.63;51.98
22018;BME280;11173;51.050;7.108;2022-08-19T10:52:12;99381.47;;;23.69;52.93
22018;BME280;11173;51.050;7.108;2022-08-19T10:57:31;99369.56;;;23.81;52.08
22018;BME280;11173;51.050;7.108;2022-08-19T11:02:31;99367.47;;;23.93;51.67
22018;BME280;11173;51.050;7.108;2022-08-19T11:07:32;99363.28;;;24.06;51.33
22018;BME280;11173;51.050;7.108;2022-08-19T11:12:33;99362.47;;;24.22;51.76
22018;BME280;11173;51.050;7.108;2022-08-19T11:17:33;99354.38;;;24.43;50.19
22018;BME280;11173;51.050;7.108;2022-08-19T11:22:34;99358.72;;;24.55;49.60
22018;BME280;11173;51.050;7.108;2022-08-19T11:27:38;99353.47;;;24.65;49.90
22018;BME280;11173;51.050;7.108;2022-08-19T11:32:40;99348.75;;;24.79;49.51
22018;BME280;11173;51.050;7.108;2022-08-19T11:37:41;99348.41;;;24.94;48.39
22018;BME280;11173;51.050;7.108;2022-08-19T11:42:41;99344.50;;;24.97;47.00
22018;BME280;11173;51.050;7.108;2022-08-19T11:47:57;99348.91;;;24.98;47.22
22018;BME280;11173;51.050;7.108;2022-08-19T11:52:57;99341.09;;;25.04;46.94
22018;BME280;11173;51.050;7.108;2022-08-19T11:57:58;99337.13;;;25.13;47.16
22018;BME280;11173;51.050;7.108;2022-08-19T12:02:58;99340.16;;;25.26;46.40
22018;BME280;11173;51.050;7.108;2022-08-19T12:07:59;99336.97;;;25.30;45.34
22018;BME280;11173;51.050;7.108;2022-08-19T12:12:59;99331.34;;;25.24;46.49
22018;BME280;11173;51.050;7.108;2022-08-19T12:17:59;99343.22;;;25.28;45.19
22018;BME280;11173;51.050;7.108;2022-08-19T12:23:00;99339.69;;;25.16;45.16
22018;BME280;11173;51.050;7.108;2022-08-19T12:28:01;99343.16;;;25.04;43.68
22018;BME280;11173;51.050;7.108;2022-08-19T12:33:01;99332.66;;;24.87;44.74
22018;BME280;11173;51.050;7.108;2022-08-19T12:38:01;99324.88;;;24.88;46.19
22018;BME280;11173;51.050;7.108;2022-08-19T12:43:02;99331.50;;;25.01;44.84
22018;BME280;11173;51.050;7.108;2022-08-19T12:48:04;99329.59;;;25.15;45.00
22018;BME280;11173;51.050;7.108;2022-08-19T12:53:05;99321.00;;;25.21;44.18
22018;BME280;11173;51.050;7.108;2022-08-19T12:58:05;99305.22;;;25.20;44.05
22018;BME280;11173;51.050;7.108;2022-08-19T13:03:06;99320.72;;;25.25;43.01
22018;BME280;11173;51.050;7.108;2022-08-19T13:08:06;99308.22;;;25.28;43.15
22018;BME280;11173;51.050;7.108;2022-08-19T13:13:08;99300.16;;;25.32;43.66
22018;BME280;11173;51.050;7.108;2022-08-19T13:18:11;99287.19;;;25.36;43.22
22018;BME280;11173;51.050;7.108;2022-08-19T13:23:12;99294.13;;;25.41;43.72
22018;BME280;11173;51.050;7.108;2022-08-19T13:28:13;99299.78;;;25.47;43.09
22018;BME280;11173;51.050;7.108;2022-08-19T13:33:13;99290.44;;;25.46;42.48
22018;BME280;11173;51.050;7.108;2022-08-19T13:38:20;99275.78;;;25.36;41.67
22018;BME280;11173;51.050;7.108;2022-08-19T13:43:23;99271.97;;;25.28;42.45
22018;BME280;11173;51.050;7.108;2022-08-19T13:48:27;99269.63;;;25.27;41.16
22018;BME280;11173;51.050;7.108;2022-08-19T13:53:27;99263.41;;;25.28;42.13
22018;BME280;11173;51.050;7.108;2022-08-19T13:58:28;99267.28;;;25.31;41.30
22018;BME280;11173;51.050;7.108;2022-08-19T14:03:28;99276.28;;;25.35;41.16
22018;BME280;11173;51.050;7.108;2022-08-19T14:08:29;99262.34;;;25.31;41.10
22018;BME280;11173;51.050;7.108;2022-08-19T14:13:32;99259.00;;;25.27;40.89
22018;BME280;11173;51.050;7.108;2022-08-19T14:18:34;99260.84;;;25.25;41.49
22018;BME280;11173;51.050;7.108;2022-08-19T14:23:34;99271.78;;;25.20;41.91
22018;BME280;11173;51.050;7.108;2022-08-19T14:28:36;99276.16;;;25.21;41.86
22018;BME280;11173;51.050;7.108;2022-08-19T14:33:36;99286.69;;;25.32;40.69
22018;BME280;11173;51.050;7.108;2022-08-19T14:38:37;99282.94;;;25.43;39.82
22018;BME280;11173;51.050;7.108;2022-08-19T14:43:37;99279.81;;;25.47;39.90
22018;BME280;11173;51.050;7.108;2022-08-19T14:48:38;99282.88;;;25.54;39.26
22018;BME280;11173;51.050;7.108;2022-08-19T14:53:38;99287.03;;;25.53;39.29
22018;BME280;11173;51.050;7.108;2022-08-19T14:58:40;99293.28;;;25.52;39.54
22018;BME280;11173;51.050;7.108;2022-08-19T15:03:41;99298.69;;;25.50;39.53
22018;BME280;11173;51.050;7.108;2022-08-19T15:08:42;99285.81;;;25.43;39.69
22018;BME280;11173;51.050;7.108;2022-08-19T15:13:44;99292.59;;;25.40;39.27
22018;BME280;11173;51.050;7.108;2022-08-19T15:18:49;99290.31;;;25.33;38.95
22018;BME280;11173;51.050;7.108;2022-08-19T15:23:51;99303.09;;;25.26;39.76
22018;BME280;11173;51.050;7.108;2022-08-19T15:28:51;99300.16;;;25.32;39.85
22018;BME280;11173;51.050;7.108;2022-08-19T15:33:53;99302.59;;;25.52;39.32
22018;BME280;11173;51.050;7.108;2022-08-19T15:38:56;99309.16;;;25.72;38.13
22018;BME280;11173;51.050;7.108;2022-08-19T15:44:03;99303.47;;;25.91;38.96
22018;BME280;11173;51.050;7.108;2022-08-19T15:49:06;99304.25;;;26.16;37.71
22018;BME280;11173;51.050;7.108;2022-08-19T15:54:09;99302.16;;;26.35;37.91
22018;BME280;11173;51.050;7.108;2022-08-19T15:59:10;99308.88;;;26.57;37.38
22018;BME280;11173;51.050;7.108;2022-08-19T16:04:29;99309.47;;;26.69;36.89
22018;BME280;11173;51.050;7.108;2022-08-19T16:09:47;99314.66;;;26.70;36.85
22018;BME280;11173;51.050;7.108;2022-08-19T16:14:48;99320.44;;;26.65;36.60
22018;BME280;11173;51.050;7.108;2022-08-19T16:19:48;99318.31;;;26.52;36.61
22018;BME280;11173;51.050;7.108;2022-08-19T16:24:49;99326.31;;;26.34;37.03
22018;BME280;11173;51.050;7.108;2022-08-19T16:29:49;99311.19;;;26.21;37.37
22018;BME280;11173;51.050;7.108;2022-08-19T16:34:50;99322.91;;;26.17;37.30
22018;BME280;11173;51.050;7.108;2022-08-19T16:39:50;99331.31;;;26.04;37.06
22018;BME280;11173;51.050;7.108;2022-08-19T16:44:53;99322.44;;;25.88;37.59
22018;BME280;11173;51.050;7.108;2022-08-19T16:49:53;99322.09;;;25.73;37.57
22018;BME280;11173;51.050;7.108;2022-08-19T16:54:54;99318.09;;;25.57;38.14
22018;BME280;11173;51.050;7.108;2022-08-19T16:59:54;99321.03;;;25.46;38.75
22018;BME280;11173;51.050;7.108;2022-08-19T17:04:54;99333.00;;;25.44;38.85
22018;BME280;11173;51.050;7.108;2022-08-19T17:09:55;99330.13;;;25.44;38.98
22018;BME280;11173;51.050;7.108;2022-08-19T17:14:56;99339.06;;;25.29;39.41
22018;BME280;11173;51.050;7.108;2022-08-19T17:19:58;99331.97;;;25.11;39.55
22018;BME280;11173;51.050;7.108;2022-08-19T17:24:59;99313.28;;;24.80;40.02
22018;BME280;11173;51.050;7.108;2022-08-19T17:30:01;99334.81;;;24.70;40.64
22018;BME280;11173;51.050;7.108;2022-08-19T17:35:01;99332.63;;;24.46;41.23
22018;BME280;11173;51.050;7.108;2022-08-19T17:40:05;99326.50;;;24.30;41.82
22018;BME280;11173;51.050;7.108;2022-08-19T17:45:07;99330.63;;;24.18;42.41
22018;BME280;11173;51.050;7.108;2022-08-19T17:50:09;99322.69;;;23.99;42.26
22018;BME280;11173;51.050;7.108;2022-08-19T17:55:11;99320.69;;;23.83;43.21
22018;BME280;11173;51.050;7.108;2022-08-19T18:00:14;99326.13;;;23.70;43.11
22018;BME280;11173;51.050;7.108;2022-08-19T18:05:17;99309.13;;;23.58;43.11
22018;BME280;11173;51.050;7.108;2022-08-19T18:10:20;99318.66;;;23.50;43.78
22018;BME280;11173;51.050;7.108;2022-08-19T18:15:21;99316.63;;;23.39;44.13
22018;BME280;11173;51.050;7.108;2022-08-19T18:20:22;99319.44;;;23.22;44.29
22018;BME280;11173;51.050;7.108;2022-08-19T18:25:25;99317.66;;;23.02;45.17
22018;BME280;11173;51.050;7.108;2022-08-19T18:30:27;99321.75;;;22.78;44.62
22018;BME280;11173;51.050;7.108;2022-08-19T18:35:32;99333.56;;;22.66;45.16
22018;BME280;11173;51.050;7.108;2022-08-19T18:40:32;99339.22;;;22.49;45.60
22018;BME280;11173;51.050;7.108;2022-08-19T18:46:05;99337.38;;;22.34;46.09
22018;BME280;11173;51.050;7.108;2022-08-19T18:51:24;99343.22;;;22.19;46.23
22018;BME280;11173;51.050;7.108;2022-08-19T18:56:29;99347.78;;;22.05;46.77
22018;BME280;11173;51.050;7.108;2022-08-19T19:01:36;99349.28;;;21.95;46.56
22018;BME280;11173;51.050;7.108;2022-08-19T19:06:39;99362.38;;;21.87;46.93
22018;BME280;11173;51.050;7.108;2022-08-19T19:11:44;99359.75;;;21.78;46.51
22018;BME280;11173;51.050;7.108;2022-08-19T19:16:45;99371.56;;;21.71;47.32
22018;BME280;11173;51.050;7.108;2022-08-19T19:21:47;99371.53;;;21.65;47.45
22018;BME280;11173;51.050;7.108;2022-08-19T19:26:50;99384.66;;;21.62;48.22
22018;BME280;11173;51.050;7.108;2022-08-19T19:31:50;99391.31;;;21.59;48.47
22018;BME280;11173;51.050;7.108;2022-08-19T19:36:51;99392.63;;;21.58;49.00
22018;BME280;11173;51.050;7.108;2022-08-19T19:41:51;99392.56;;;21.53;48.84
22018;BME280;11173;51.050;7.108;2022-08-19T19:46:52;99399.16;;;21.44;48.35
22018;BME280;11173;51.050;7.108;2022-08-19T19:51:54;99393.63;;;21.29;48.77
22018;BME280;11173;51.050;7.108;2022-08-19T19:56:55;99398.97;;;21.21;48.34
22018;BME280;11173;51.050;7.108;2022-08-19T20:01:55;99414.50;;;21.05;48.66
22018;BME280;11173;51.050;7.108;2022-08-19T20:06:56;99431.34;;;20.89;49.05
22018;BME280;11173;51.050;7.108;2022-08-19T20:11:56;99421.63;;;20.75;49.28
22018;BME280;11173;51.050;7.108;2022-08-19T20:16:58;99431.31;;;20.68;49.54
22018;BME280;11173;51.050;7.108;2022-08-19T20:21:59;99433.38;;;20.67;50.08
22018;BME280;11173;51.050;7.108;2022-08-19T20:27:01;99441.44;;;20.75;49.56
22018;BME280;11173;51.050;7.108;2022-08-19T20:32:02;99444.34;;;20.80;49.95
22018;BME280;11173;51.050;7.108;2022-08-19T20:37:03;99441.94;;;20.94;49.38
22018;BME280;11173;51.050;7.108;2022-08-19T20:42:04;99444.91;;;21.05;49.66
22018;BME280;11173;51.050;7.108;2022-08-19T20:47:04;99447.78;;;21.11;49.65
22018;BME280;11173;51.050;7.108;2022-08-19T20:52:05;99442.44;;;21.18;50.00
22018;BME280;11173;51.050;7.108;2022-08-19T20:57:05;99457.19;;;21.22;50.95
22018;BME280;11173;51.050;7.108;2022-08-19T21:02:06;99448.28;;;21.09;50.47
22018;BME280;11173;51.050;7.108;2022-08-19T21:07:07;99455.72;;;21.07;51.01
22018;BME280;11173;51.050;7.108;2022-08-19T21:12:13;99455.59;;;20.95;51.21
22018;BME280;11173;51.050;7.108;2022-08-19T21:17:13;99464.59;;;20.94;52.33
22018;BME280;11173;51.050;7.108;2022-08-19T21:22:14;99459.66;;;20.89;52.02
22018;BME280;11173;51.050;7.108;2022-08-19T21:27:14;99458.38;;;20.90;52.50
22018;BME280;11173;51.050;7.108;2022-08-19T21:32:14;99460.34;;;20.83;52.50
22018;BME280;11173;51.050;7.108;2022-08-19T21:37:15;99459.22;;;20.75;53.24
22018;BME280;11173;51.050;7.108;2022-08-19T21:42:19;99463.88;;;20.78;52.84
22018;BME280;11173;51.050;7.108;2022-08-19T21:47:20;99457.63;;;20.74;53.32
22018;BME280;11173;51.050;7.108;2022-08-19T21:52:22;99460.75;;;20.76;54.34
22018;BME280;11173;51.050;7.108;2022-08-19T21:57:23;99462.72;;;20.70;54.56
22018;BME280;11173;51.050;7.108;2022-08-19T22:02:24;99468.28;;;20.59;54.15
22018;BME280;11173;51.050;7.108;2022-08-19T22:07:25;99474.06;;;20.50;54.10
22018;BME280;11173;51.050;7.108;2022-08-19T22:12:31;99478.59;;;20.41;54.16
22018;BME280;11173;51.050;7.108;2022-08-19T22:17:32;99473.56;;;20.31;54.40
22018;BME280;11173;51.050;7.108;2022-08-19T22:22:32;99467.25;;;20.21;54.26
22018;BME280;11173;51.050;7.108;2022-08-19T22:27:33;99470.47;;;20.14;54.38
22018;BME280;11173;51.050;7.108;2022-08-19T22:32:35;99471.19;;;20.09;54.79
22018;BME280;11173;51.050;7.108;2022-08-19T22:37:35;99473.69;;;20.06;55.33
22018;BME280;11173;51.050;7.108;2022-08-19T22:42:36;99478.47;;;20.00;55.46
22018;BME280;11173;51.050;7.108;2022-08-19T22:47:37;99477.53;;;20.03;55.58
22018;BME280;11173;51.050;7.108;2022-08-19T22:52:38;99484.44;;;20.02;55.38
22018;BME280;11173;51.050;7.108;2022-08-19T22:57:41;99479.88;;;20.05;56.02
22018;BME280;11173;51.050;7.108;2022-08-19T23:02:42;99471.19;;;20.09;56.18
22018;BME280;11173;51.050;7.108;2022-08-19T23:07:42;99471.94;;;20.09;56.79
22018;BME280;11173;51.050;7.108;2022-08-19T23:12:46;99463.66;;;20.05;56.54
22018;BME280;11173;51.050;7.108;2022-08-19T23:17:47;99469.41;;;20.11;56.84
22018;BME280;11173;51.050;7.108;2022-08-19T23:22:47;99463.47;;;20.09;57.06
22018;BME280;11173;51.050;7.108;2022-08-19T23:27:50;99464.72;;;20.08;57.48
22018;BME280;11173;51.050;7.108;2022-08-19T23:33:18;99468.13;;;20.12;57.14
22018;BME280;11173;51.050;7.108;2022-08-19T23:38:24;99460.44;;;20.13;57.93
22018;BME280;11173;51.050;7.108;2022-08-19T23:43:25;99464.03;;;20.13;57.71
22018;BME280;11173;51.050;7.108;2022-08-19T23:48:29;99465.28;;;20.12;58.00
22018;BME280;11173;51.050;7.108;2022-08-19T23:53:31;99478.38;;;20.10;57.93
22018;BME280;11173;51.050;7.108;2022-08-19T23:58:33;99461.31;;;20.04;58.04
